Time;durP1;ratioP1;P1;durP2;ratioP2;P2;SDS_P1;SDS_P2;PMS_P1;PMS_P2;Temp;Humidity;BMP_temperature;BMP_pressure;BME280_temperature;BME280_humidity;BME280_pressure;Samples;Min_cycle;Max_cycle;Signal;HPM_P1;HPM_P2
2022/01/27 12:30:11;;;;;;;30.98;10.13;;;9.80;99.90;;;;;;5077923;27;1989634;-83
2022/01/27 12:32:37;;;;;;;29.08;11.80;;;9.40;99.90;;;;;;5109741;28;20032;-85
2022/01/27 12:35:07;;;;;;;40.90;11.75;;;8.90;99.90;;;;;;5092526;28;20073;-84
2022/01/27 12:37:35;;;;;;;28.88;11.50;;;;;;;;;;5094159;28;20020;-84
2022/01/27 12:40:06;;;;;;;22.15;9.73;;;;;;;;;;5112428;28;20538;-81
2022/01/27 12:42:36;;;;;;;29.13;8.88;;;;;;;;;;5131258;28;20023;-84
2022/01/27 12:45:03;;;;;;;30.73;8.38;;;;;;;;;;5106979;28;20116;-81
2022/01/27 12:47:30;;;;;;;26.83;7.07;;;;;;;;;;5130749;28;20031;-84
2022/01/27 12:50:06;;;;;;;21.52;6.40;;;;;;;;;;5131060;28;20035;-86
2022/01/27 12:52:38;;;;;;;23.05;6.75;;;;;;;;;;5112519;28;20077;-83
2022/01/27 12:55:04;;;;;;;18.20;6.38;;;;;;;;;;5112479;28;20031;-83
2022/01/27 12:57:32;;;;;;;23.60;7.15;;;;;;;;;;5112959;28;20059;-84
2022/01/27 13:00:00;;;;;;;17.35;6.15;;;9.50;99.90;;;;;;5110298;28;20035;-82
2022/01/27 13:02:28;;;;;;;21.75;5.60;;;9.40;99.90;;;;;;5091922;28;20023;-81
2022/01/27 13:04:58;;;;;;;27.58;6.35;;;9.40;99.90;;;;;;5110291;28;20024;-85
2022/01/27 13:07:25;;;;;;;24.67;5.82;;;9.30;99.90;;;;;;5110200;28;20066;-87
2022/01/27 13:10:05;;;;;;;20.00;5.65;;;9.40;99.90;;;;;;5091783;28;20016;-84
2022/01/27 13:12:41;;;;;;;17.38;5.32;;;9.40;99.90;;;;;;5110002;28;20024;-84
2022/01/27 13:15:14;;;;;;;21.67;5.05;;;9.50;99.90;;;;;;5091738;28;20466;-82
2022/01/27 13:18:07;;;;;;;17.30;5.28;;;9.60;99.90;;;;;;5126915;28;20496;-82
2022/01/27 13:20:42;;;;;;;20.92;6.13;;;;;;;;;;5130599;28;20110;-82
2022/01/27 13:23:24;;;;;;;16.73;4.60;;;9.90;99.90;;;;;;5126374;28;20473;-83
2022/01/27 13:25:54;;;;;;;22.13;5.38;;;;;;;;;;5109860;28;20051;-82
2022/01/27 13:28:25;;;;;;;15.07;3.70;;;;;;;;;;5115565;28;20042;-81
2022/01/27 13:30:53;;;;;;;12.50;4.07;;;;;;;;;;5111761;28;20051;-82
2022/01/27 13:33:20;;;;;;;15.23;4.10;;;;;;;;;;5111687;28;20019;-85
2022/01/27 13:35:47;;;;;;;16.05;4.22;;;;;;;;;;5111607;28;20100;-82
2022/01/27 13:38:23;;;;;;;19.70;3.60;;;;;;;;;;5118115;28;20346;-82
2022/01/27 13:43:42;;;;;;;17.77;4.00;;;;;;;;;;5116336;28;20384;-79
2022/01/27 13:46:09;;;;;;;13.52;3.78;;;;;;;;;;5110991;28;20031;-84
2022/01/27 13:48:46;;;;;;;13.40;3.58;;;;;;;;;;5116247;28;20020;-81
2022/01/27 13:51:22;;;;;;;20.10;3.97;;;;;;;;;;5092098;28;20027;-81
2022/01/27 13:54:01;;;;;;;18.05;4.25;;;;;;;;;;5101397;28;20147;-84
2022/01/27 13:56:44;;;;;;;14.38;3.40;;;;;;;;;;5100662;28;20035;-84
2022/01/27 13:59:12;;;;;;;17.00;3.88;;;;;;;;;;5095525;28;20035;-79
2022/01/27 14:01:38;;;;;;;11.20;2.70;;;;;;;;;;5095082;28;20023;-79
2022/01/27 14:04:04;;;;;;;15.50;3.50;;;;;;;;;;5094342;28;20024;-78
2022/01/27 14:06:30;;;;;;;14.27;3.20;;;;;;;;;;5094954;28;20044;-80
2022/01/27 14:08:58;;;;;;;13.95;3.25;;;;;;;;;;5094855;28;20060;-78
2022/01/27 14:11:37;;;;;;;18.75;3.80;;;;;;;;;;5104712;28;20024;-79
2022/01/27 14:14:05;;;;;;;14.73;2.83;;;;;;;;;;5115573;28;20055;-78
2022/01/27 14:16:33;;;;;;;12.38;3.13;;;;;;;;;;5115395;28;20035;-83
2022/01/27 14:19:11;;;;;;;15.57;3.00;;;;;;;;;;5115275;28;20027;-80
2022/01/27 14:21:41;;;;;;;14.52;3.40;;;;;;;;;;5104557;28;20016;-81
2022/01/27 14:24:10;;;;;;;13.18;3.10;;;;;;;;;;5107334;28;20047;-80
2022/01/27 14:29:07;;;;;;;19.00;3.50;;;;;;;;;;5115218;28;20053;-83
2022/01/27 14:31:33;;;;;;;16.77;3.40;;;;;;;;;;5115188;28;20020;-78
2022/01/27 14:34:00;;;;;;;12.07;2.80;;;;;;;;;;5102402;28;20035;-78
2022/01/27 14:36:26;;;;;;;13.82;3.22;;;;;;;;;;5110835;28;20480;-80
2022/01/27 14:38:53;;;;;;;11.50;3.08;;;;;;;;;;5108039;28;20085;-80
2022/01/27 14:41:20;;;;;;;21.27;3.78;;;;;;;;;;5108358;28;20023;-79
2022/01/27 14:43:47;;;;;;;20.48;4.15;;;;;;;;;;5114990;28;20503;-80
2022/01/27 14:46:15;;;;;;;13.80;2.50;;;;;;;;;;5113191;28;20411;-79
2022/01/27 14:48:45;;;;;;;13.77;2.63;;;;;;;;;;5114593;28;20031;-79
2022/01/27 14:51:13;;;;;;;18.83;2.88;;;;;;;;;;5082991;28;20127;-78
2022/01/27 14:53:39;;;;;;;16.88;3.28;;;;;;;;;;5104007;28;20055;-79
2022/01/27 14:56:06;;;;;;;21.20;4.50;;;;;;;;;;5103471;28;20027;-79
2022/01/27 14:58:33;;;;;;;14.13;2.80;;;;;;;;;;5113765;28;20069;-80
2022/01/27 15:00:59;;;;;;;17.15;3.00;;;;;;;;;;5104207;28;20068;-79
2022/01/27 15:03:25;;;;;;;9.75;2.72;;;;;;;;;;5108697;28;20012;-79
2022/01/27 15:05:51;;;;;;;17.67;3.38;;;;;;;;;;5108457;28;20028;-79
2022/01/27 15:08:17;;;;;;;17.85;2.80;;;;;;;;;;5102068;28;20085;-79
2022/01/27 15:10:43;;;;;;;16.55;2.78;;;;;;;;;;5104822;28;20027;-78
2022/01/27 15:13:11;;;;;;;13.45;2.55;;;;;;;;;;5111336;28;20016;-81
2022/01/27 15:21:07;;;;;;;16.05;2.53;;;;;;;;;;5094124;28;20101;-81
2022/01/27 15:23:35;;;;;;;13.52;2.80;;;;;;;;;;5100618;28;20095;-80
2022/01/27 15:26:02;;;;;;;10.80;2.70;;;;;;;;;;5105527;28;20470;-82
2022/01/27 15:28:28;;;;;;;20.27;3.15;;;;;;;;;;5105673;28;20066;-79
2022/01/27 15:30:56;;;;;;;13.43;3.13;;;;;;;;;;5087085;28;20326;-81
2022/01/27 15:33:23;;;;;;;15.25;2.65;;;;;;;;;;5092930;28;20043;-80
2022/01/27 15:35:49;;;;;;;20.90;3.03;;;;;;;;;;5105129;28;20099;-77
2022/01/27 15:38:15;;;;;;;19.92;3.15;;;;;;;;;;5103123;28;20036;-78
2022/01/27 15:40:42;;;;;;;19.15;3.13;;;;;;;;;;5103881;28;20020;-77
2022/01/27 15:43:09;;;;;;;14.55;2.38;;;;;;;;;;5104026;28;20061;-78
2022/01/27 15:45:35;;;;;;;22.25;2.88;;;;;;;;;;5084775;28;20515;-77
2022/01/27 15:48:02;;;;;;;14.25;2.60;;;;;;;;;;5089225;28;20476;-77
2022/01/27 15:50:28;;;;;;;15.70;1.98;;;;;;;;;;5096094;28;20023;-77
2022/01/27 15:52:54;;;;;;;18.38;2.13;;;;;;;;;;5093532;28;20096;-77
2022/01/27 15:55:21;;;;;;;11.93;2.08;;;;;;;;;;5096199;28;20024;-78
2022/01/27 15:57:48;;;;;;;16.38;3.28;;;;;;;;;;5093173;28;20046;-77
2022/01/27 16:00:14;;;;;;;17.85;2.40;;;;;;;;;;5102798;28;20023;-77
2022/01/27 16:02:42;;;;;;;22.95;4.28;;;;;;;;;;5113336;28;20454;-77
2022/01/27 16:05:08;;;;;;;18.33;2.95;;;;;;;;;;5109180;28;20477;-79
2022/01/27 16:07:35;;;;;;;17.15;2.53;;;;;;;;;;5108834;28;20019;-78
2022/01/27 16:10:01;;;;;;;20.38;2.20;;;;;;;;;;5106772;28;20028;-77
2022/01/27 16:12:27;;;;;;;15.38;1.98;;;;;;;;;;5094139;28;20324;-78
2022/01/27 16:14:55;;;;;;;17.45;2.15;;;;;;;;;;5076211;28;20412;-79
2022/01/27 16:17:21;;;;;;;18.30;2.28;;;;;;;;;;5108480;28;20030;-77
2022/01/27 16:19:48;;;;;;;13.43;2.40;;;;;;;;;;5105857;28;20023;-79
2022/01/27 16:22:16;;;;;;;18.92;2.90;;;;;;;;;;5106962;28;20032;-79
2022/01/27 16:24:46;;;;;;;12.00;1.88;;;;;;;;;;5094142;28;20039;-79
2022/01/27 16:27:12;;;;;;;17.63;2.70;;;;;;;;;;5106219;28;20058;-79
2022/01/27 16:29:38;;;;;;;25.10;3.65;;;;;;;;;;5092448;28;20056;-78
2022/01/27 16:32:05;;;;;;;17.60;2.60;;;;;;;;;;5096212;28;20469;-79
2022/01/27 16:34:31;;;;;;;12.10;2.42;;;;;;;;;;5113377;28;20023;-79
2022/01/27 16:36:57;;;;;;;13.70;2.35;;;;;;;;;;5110573;28;20412;-79
2022/01/27 16:39:23;;;;;;;13.20;2.45;;;;;;;;;;5092904;28;20028;-78
2022/01/27 16:41:49;;;;;;;18.23;2.50;;;;;;;;;;5111766;28;20027;-79
2022/01/27 16:44:15;;;;;;;19.80;2.92;;;;;;;;;;5087026;28;20459;-79
2022/01/27 16:46:41;;;;;;;21.67;2.63;;;;;;;;;;5107962;28;20020;-79
2022/01/27 16:49:08;;;;;;;19.13;2.60;;;;;;;;;;5090685;28;20430;-78
2022/01/27 16:51:34;;;;;;;24.45;3.88;;;;;;;;;;5096879;28;20028;-79
2022/01/27 16:54:00;;;;;;;16.48;2.40;;;;;;;;;;5102866;28;20024;-78
2022/01/27 16:56:26;;;;;;;30.13;3.80;;;;;;;;;;5113189;28;20038;-78
2022/01/27 16:58:58;;;;;;;15.82;2.28;;;;;;;;;;5113144;28;20036;-78
2022/01/27 17:01:24;;;;;;;20.27;2.65;;;;;;;;;;5091697;28;20107;-78
2022/01/27 17:03:50;;;;;;;21.67;2.85;;;;;;;;;;5112949;28;20055;-76
2022/01/27 17:06:16;;;;;;;13.88;2.97;;;;;;;;;;5112883;28;20019;-78
2022/01/27 17:08:43;;;;;;;20.58;4.43;;;;;;;;;;5100470;28;20034;-79
2022/01/27 17:11:09;;;;;;;16.70;2.88;;;;;;;;;;5092575;28;20034;-78
2022/01/27 17:13:37;;;;;;;18.27;4.13;;;;;;;;;;5108907;28;20039;-79
2022/01/27 17:16:04;;;;;;;22.80;4.85;;;;;;;;;;5110770;28;20027;-79
2022/01/27 17:18:30;;;;;;;17.23;2.78;;;;;;;;;;5105226;28;20015;-79
2022/01/27 17:20:56;;;;;;;14.50;2.13;;;;;;;;;;5112001;28;20019;-79
2022/01/27 17:23:23;;;;;;;16.88;2.60;;;;;;;;;;5116533;28;20026;-79
2022/01/27 17:25:49;;;;;;;12.95;2.60;;;;;;;;;;5116501;28;20028;-79
2022/01/27 17:28:15;;;;;;;19.77;2.40;;;;;;;;;;5110867;28;20031;-79
2022/01/27 17:30:42;;;;;;;17.20;3.22;;;;;;;;;;5116615;28;20047;-79
2022/01/27 17:33:08;;;;;;;21.13;2.40;;;;;;;;;;5098253;28;20035;-79
2022/01/27 17:35:35;;;;;;;23.40;2.50;;;;;;;;;;5110819;28;20047;-79
2022/01/27 17:38:01;;;;;;;23.33;3.78;;;;;;;;;;5082104;28;20028;-78
2022/01/27 17:40:27;;;;;;;24.55;2.80;;;;;;;;;;5107846;28;20016;-79
2022/01/27 17:43:04;;;;;;;15.60;2.13;;;;;;;;;;5095748;28;20462;-79
2022/01/27 17:45:30;;;;;;;25.25;2.67;;;;;;;;;;5104730;28;20067;-78
2022/01/27 17:48:01;;;;;;;19.42;3.17;;;;;;;;;;5097659;28;20389;-78
2022/01/27 17:50:27;;;;;;;19.88;3.10;;;;;;;;;;5116130;28;20020;-79
2022/01/27 17:52:53;;;;;;;18.15;2.80;;;;;;;;;;5097847;28;20486;-79
2022/01/27 17:55:19;;;;;;;13.90;3.58;;;;;;;;;;5114598;28;20375;-79
2022/01/27 17:57:47;;;;;;;17.38;3.78;;;;;;;;;;5096737;28;20114;-79
2022/01/27 18:00:14;;;;;;;16.15;2.80;;;;;;;;;;5100504;28;20385;-79
2022/01/27 18:02:40;;;;;;;14.90;1.88;;;;;;;;;;5115818;28;20026;-78
2022/01/27 18:05:07;;;;;;;20.02;2.92;;;;;;;;;;5096389;28;20024;-78
2022/01/27 18:07:34;;;;;;;20.02;2.88;;;;;;;;;;5095431;28;20028;-78
2022/01/27 18:10:00;;;;;;;20.20;2.88;;;;;;;;;;5102702;28;20023;-78
2022/01/27 18:12:27;;;;;;;14.82;2.20;;;;;;;;;;5111623;28;20024;-78
2022/01/27 18:14:54;;;;;;;22.67;4.18;;;;;;;;;;5095927;28;20417;-78
2022/01/27 18:17:20;;;;;;;17.58;3.15;;;;;;;;;;5108974;28;20027;-78
2022/01/27 18:19:46;;;;;;;15.88;3.00;;;;;;;;;;5097105;28;20032;-78
2022/01/27 18:22:13;;;;;;;14.27;2.90;;;;;;;;;;5102169;28;20028;-78
2022/01/27 18:24:39;;;;;;;17.60;2.60;;;;;;;;;;5112056;28;20024;-78
2022/01/27 18:27:05;;;;;;;20.02;2.90;;;;;;;;;;5082512;28;20050;-78
2022/01/27 18:29:31;;;;;;;19.58;3.00;;;;;;;;;;5096412;28;20047;-78
2022/01/27 18:31:58;;;;;;;17.17;2.60;;;;;;;;;;5114787;28;20461;-78
2022/01/27 18:34:24;;;;;;;21.00;4.57;;;;;;;;;;5089805;28;20066;-78
2022/01/27 18:36:50;;;;;;;18.85;3.33;;;;;;;;;;5110740;28;20028;-78
2022/01/27 18:39:16;;;;;;;16.42;2.83;;;;;;;;;;5108038;28;20031;-78
2022/01/27 18:41:42;;;;;;;16.92;3.25;;;;;;;;;;5112501;28;20024;-78
2022/01/27 18:44:08;;;;;;;24.00;3.45;;;;;;;;;;5100139;28;20374;-78
2022/01/27 18:46:35;;;;;;;18.20;3.53;;;;;;;;;;5112657;28;20031;-78
2022/01/27 18:49:03;;;;;;;15.45;2.70;;;;;;;;;;5105882;28;20062;-78
2022/01/27 18:51:31;;;;;;;15.10;4.05;;;;;;;;;;5090982;28;20016;-78
2022/01/27 18:53:57;;;;;;;17.70;2.38;;;;;;;;;;5098432;28;20022;-78
2022/01/27 18:56:23;;;;;;;16.10;2.75;;;;;;;;;;5110424;28;20032;-78
2022/01/27 18:58:49;;;;;;;20.13;2.55;;;;;;;;;;5114833;28;20020;-78
2022/01/27 19:01:16;;;;;;;25.30;3.20;;;;;;;;;;5106329;28;20056;-78
2022/01/27 19:03:42;;;;;;;22.25;4.25;;;;;;;;;;5097326;28;20035;-78
2022/01/27 19:06:08;;;;;;;14.27;2.20;;;;;;;;;;5077435;28;20509;-77
2022/01/27 19:08:34;;;;;;;39.97;3.22;;;;;;;;;;5084870;28;20028;-78
2022/01/27 19:11:00;;;;;;;22.00;2.38;;;;;;;;;;5112886;28;20012;-78
2022/01/27 19:13:27;;;;;;;15.57;2.10;;;;;;;;;;5109418;28;20031;-78
2022/01/27 19:15:53;;;;;;;40.50;3.13;;;;;;;;;;5114226;28;20020;-78
2022/01/27 19:18:19;;;;;;;19.17;3.15;;;;;;;;;;5114433;28;20042;-78
2022/01/27 19:20:46;;;;;;;22.42;3.63;;;;;;;;;;5114615;28;20019;-78
2022/01/27 19:23:14;;;;;;;24.02;2.92;;;;;;;;;;5099917;28;20078;-78
2022/01/27 19:25:43;;;;;;;19.98;2.78;;;;;;;;;;5098886;28;20081;-78
2022/01/27 19:28:09;;;;;;;18.88;2.38;;;;;;;;;;5093820;28;20089;-79
2022/01/27 19:30:36;;;;;;;15.98;2.78;;;;;;;;;;5094051;28;20059;-79
2022/01/27 19:33:02;;;;;;;22.80;2.30;;;;;;;;;;5075935;28;20406;-78
2022/01/27 19:35:34;;;;;;;19.15;2.20;;;;;;;;;;5104850;28;20024;-79
2022/01/27 19:38:05;;;;;;;15.25;2.33;;;;;;;;;;5102699;28;20016;-76
2022/01/27 19:40:31;;;;;;;17.70;2.47;;;;;;;;;;5102511;28;20465;-79
2022/01/27 19:42:57;;;;;;;15.85;2.53;;;;;;;;;;5113471;28;20024;-79
2022/01/27 19:45:23;;;;;;;19.73;2.60;;;;;;;;;;5084923;28;20012;-79
2022/01/27 19:47:50;;;;;;;21.38;2.47;;;;;;;;;;5106655;28;20028;-79
2022/01/27 19:50:17;;;;;;;20.42;3.38;;;;;;;;;;5106576;28;20218;-78
2022/01/27 19:52:48;;;;;;;21.70;3.35;;;;;;;;;;5107962;28;20015;-78
2022/01/27 19:55:15;;;;;;;25.63;2.90;;;;;;;;;;5100185;28;20016;-79
2022/01/27 19:57:41;;;;;;;21.15;2.60;;;;;;;;;;5106097;28;20049;-79
2022/01/27 20:00:08;;;;;;;17.73;2.88;;;;;;;;;;5100038;28;20031;-79
2022/01/27 20:02:42;;;;;;;18.02;3.20;;;;;;;;;;5110050;28;20028;-79
2022/01/27 20:05:11;;;;;;;15.50;2.97;;;;;;;;;;5110311;28;20015;-79
2022/01/27 20:07:37;;;;;;;16.50;2.20;;;;;;;;;;5110179;28;20032;-79
2022/01/27 20:10:03;;;;;;;18.25;2.45;;;;;;;;;;5084970;28;20429;-78
2022/01/27 20:12:29;;;;;;;15.90;2.78;;;;;;;;;;5107405;28;20074;-78
2022/01/27 20:14:56;;;;;;;19.05;3.05;;;;;;;;;;5103041;28;20012;-78
2022/01/27 20:17:22;;;;;;;18.50;3.65;;;;;;;;;;5103233;28;20031;-78
2022/01/27 20:19:52;;;;;;;17.45;2.60;;;;;;;;;;5089304;28;20497;-78
2022/01/27 20:22:31;;;;;;;19.98;2.80;;;;;;;;;;5111360;28;20103;-78
2022/01/27 20:24:57;;;;;;;31.23;3.42;;;;;;;;;;5107101;28;20041;-78
2022/01/27 20:27:24;;;;;;;22.13;3.65;;;;;;;;;;5087742;28;20536;-79
2022/01/27 20:29:50;;;;;;;21.83;3.42;;;;;;;;;;5111348;28;20059;-77
2022/01/27 20:32:16;;;;;;;27.48;3.33;;;;;;;;;;5108331;28;20481;-77
2022/01/27 20:34:42;;;;;;;22.48;2.90;;;;;;;;;;5111266;28;20023;-77
2022/01/27 20:37:08;;;;;;;28.83;4.68;;;;;;;;;;5091784;28;20024;-77
2022/01/27 20:39:36;;;;;;;12.70;2.80;;;;;;;;;;5106586;28;20038;-76
2022/01/27 20:42:05;;;;;;;16.63;2.55;;;;;;;;;;5103066;28;20028;-76
2022/01/27 20:44:31;;;;;;;22.65;2.75;;;;;;;;;;5110997;28;20038;-76
2022/01/27 20:46:57;;;;;;;24.27;2.95;;;;;;;;;;5104139;28;20042;-78
2022/01/27 20:49:23;;;;;;;22.88;3.25;;;;;;;;;;5090767;28;20542;-78
2022/01/27 20:51:49;;;;;;;21.15;2.70;;;;;;;;;;5108679;28;20032;-78
2022/01/27 20:54:16;;;;;;;19.25;3.20;;;;;;;;;;5111833;28;20077;-78
2022/01/27 20:56:42;;;;;;;17.95;2.40;;;;;;;;;;5109243;28;20032;-78
2022/01/27 20:59:08;;;;;;;21.40;3.70;;;;;;;;;;5087951;28;20365;-78
2022/01/27 21:01:34;;;;;;;24.52;2.65;;;;;;;;;;5105919;28;20473;-78
2022/01/27 21:04:00;;;;;;;16.85;2.65;;;;;;;;;;5088286;28;20599;-77
2022/01/27 21:06:26;;;;;;;24.83;2.47;;;;;;;;;;5108178;28;20404;-78
2022/01/27 21:08:52;;;;;;;24.05;2.30;;;;;;;;;;5103021;28;20448;-78
2022/01/27 21:11:18;;;;;;;20.23;3.42;;;;;;;;;;5108157;28;20016;-78
2022/01/27 21:13:44;;;;;;;22.90;3.47;;;;;;;;;;5109507;28;20016;-78
2022/01/27 21:16:10;;;;;;;20.52;2.75;;;;;;;;;;5104505;28;20080;-78
2022/01/27 21:18:36;;;;;;;18.38;2.95;;;;;;;;;;5109606;28;20031;-78
2022/01/27 21:21:03;;;;;;;13.57;2.03;;;;;;;;;;5105808;28;20080;-78
2022/01/27 21:23:29;;;;;;;20.05;2.38;;;;;;;;;;5111309;28;20106;-78
2022/01/27 21:25:55;;;;;;;16.42;2.10;;;;;;;;;;5100397;28;20458;-78
2022/01/27 21:28:21;;;;;;;12.93;2.33;;;;;;;;;;5104368;28;20028;-78
2022/01/27 21:30:48;;;;;;;15.85;2.65;;;;;;;;;;5105228;28;20048;-78
2022/01/27 21:33:16;;;;;;;19.13;2.80;;;;;;;;;;5110573;28;20023;-78
2022/01/27 21:35:42;;;;;;;14.77;2.92;;;;;;;;;;5109921;28;20361;-78
2022/01/27 21:38:08;;;;;;;13.73;3.10;;;;;;;;;;5100825;28;20036;-78
2022/01/27 21:40:34;;;;;;;27.85;3.50;;;;;;;;;;5094731;28;20128;-78
2022/01/27 21:43:00;;;;;;;19.88;3.65;;;;;;;;;;5094796;28;20024;-78
2022/01/27 21:45:28;;;;;;;11.38;2.00;;;;;;;;;;5103279;28;20024;-78
2022/01/27 21:47:54;;;;;;;14.18;1.98;;;;;;;;;;5097015;28;20043;-78
2022/01/27 21:50:21;;;;;;;19.33;3.00;;;;;;;;;;5115465;28;20023;-78
2022/01/27 21:52:47;;;;;;;22.17;3.10;;;;;;;;;;5115550;28;20024;-78
2022/01/27 21:55:17;;;;;;;17.05;2.65;;;;;;;;;;5115444;28;20465;-78
2022/01/27 21:57:43;;;;;;;17.33;2.38;;;;;;;;;;5115640;28;20428;-78
2022/01/27 22:00:13;;;;;;;15.85;2.22;;;;;;;;;;5115193;28;20036;-78
2022/01/27 22:02:39;;;;;;;24.05;2.50;;;;;;;;;;5096708;28;20089;-78
2022/01/27 22:05:05;;;;;;;27.45;3.03;;;;;;;;;;5115420;28;20024;-78
2022/01/27 22:07:32;;;;;;;11.15;1.77;;;;;;;;;;5115251;28;20035;-78
2022/01/27 22:09:58;;;;;;;22.67;3.85;;;;;;;;;;5096906;28;20127;-78
2022/01/27 22:12:25;;;;;;;22.17;3.35;;;;;;;;;;5115182;28;20019;-78
2022/01/27 22:14:51;;;;;;;20.17;2.40;;;;;;;;;;5114961;28;20032;-78
2022/01/27 22:17:17;;;;;;;10.10;2.00;;;;;;;;;;5115006;28;20023;-78
2022/01/27 22:19:50;;;;;;;16.40;2.00;;;;;;;;;;5115111;28;20034;-78
2022/01/27 22:22:18;;;;;;;24.70;2.22;;;;;;;;;;5115074;28;20020;-78
2022/01/27 22:24:44;;;;;;;21.30;2.58;;;;;;;;;;5114708;28;20525;-78
2022/01/27 22:27:10;;;;;;;15.65;1.90;;;;;;;;;;5114840;28;20473;-78
2022/01/27 22:29:38;;;;;;;16.90;2.70;;;;;;;;;;5114322;28;20397;-78
2022/01/27 22:32:04;;;;;;;17.15;2.72;;;;;;;;;;5114919;28;20023;-78
2022/01/27 22:34:31;;;;;;;26.55;2.80;;;;;;;;;;5114747;28;20027;-78
2022/01/27 22:36:58;;;;;;;15.43;2.53;;;;;;;;;;5114968;28;20111;-78
2022/01/27 22:39:25;;;;;;;19.17;2.35;;;;;;;;;;5114762;28;20028;-78
2022/01/27 22:41:53;;;;;;;18.83;2.45;;;;;;;;;;5115082;28;20031;-78
2022/01/27 22:44:19;;;;;;;17.17;2.20;;;;;;;;;;5114337;28;20020;-78
2022/01/27 22:46:47;;;;;;;23.05;3.42;;;;;;;;;;5114528;28;20465;-78
2022/01/27 22:49:13;;;;;;;18.65;2.55;;;;;;;;;;5114198;28;20465;-78
2022/01/27 22:51:40;;;;;;;18.42;2.58;;;;;;;;;;5114508;28;20098;-78
2022/01/27 22:54:06;;;;;;;31.35;2.85;;;;;;;;;;5114341;28;20024;-78
2022/01/27 22:56:32;;;;;;;21.40;2.65;;;;;;;;;;5114388;28;20027;-78
2022/01/27 22:58:58;;;;;;;23.42;3.42;;;;;;;;;;5114192;28;20031;-78
2022/01/27 23:01:25;;;;;;;20.20;3.13;;;;;;;;;;5114121;28;20031;-78
2022/01/27 23:03:51;;;;;;;12.20;2.28;;;;;;;;;;5114192;28;20027;-78
2022/01/27 23:06:17;;;;;;;26.33;3.03;;;;;;;;;;5114266;28;20421;-78
2022/01/27 23:08:45;;;;;;;23.92;2.67;;;;;;;;;;5095733;28;20028;-78
2022/01/27 23:11:16;;;;;;;21.58;3.17;;;;;;;;;;5113957;28;20470;-78
2022/01/27 23:13:46;;;;;;;24.58;3.30;;;;;;;;;;5113094;28;20027;-78
2022/01/27 23:23:44;;;;;;;;;;;;;;;;;;5114486;28;20035;-78
2022/01/27 23:26:19;;;;;;;17.50;2.50;;;;;;;;;;5113674;28;20353;-78
2022/01/27 23:28:51;;;;;;;26.92;3.85;;;;;;;;;;5113214;28;20024;-78
2022/01/27 23:31:29;;;;;;;19.52;3.13;;;;;;;;;;5113426;28;20059;-78
2022/01/27 23:33:57;;;;;;;21.40;3.00;;;;;;;;;;5113617;28;20116;-79
2022/01/27 23:37:35;;;;;;;17.05;2.40;;;;;;;;;;5113693;28;20377;-78
2022/01/27 23:42:02;;;;;;;21.27;2.15;;;;;;;;;;5113374;28;20023;-78
2022/01/27 23:47:42;;;;;;;27.90;2.65;;;;;;;;;;5030481;28;20033;-78
2022/01/27 23:50:30;;;;;;;29.13;2.60;;;;;;;;;;4991309;28;20030;-78
2022/01/27 23:57:54;;;;;;;24.27;2.90;;;;;;;;;;5001579;28;20037;-78
